| time (UTC) | temp C | wind direction | speed KPH | gust KPH | rain 1hr cm | rain 24hr cm | rain mn cm | humidity % | barometer mb |
| 20260831170040 | 23 | 0 | 0.0 | 3.2 | 0.00 | 0.25 | 0.00 | 88 | 1017.5 |
| 20260831164555 | 23 | 116 | 3.2 | 4.8 | 0.00 | 0.25 | 0.00 | 89 | 1017.0 |
| 20260831163040 | 23 | 0 | 0.0 | 0.0 | 0.00 | 0.25 | 0.00 | 87 | 1018.2 |
| 20260831161547 | 23 | 0 | 0.0 | 0.0 | 0.00 | 0.25 | 0.00 | 90 | 1018.4 |
| 20260831160043 | 23 | 0 | 0.0 | 1.6 | 0.00 | 0.25 | 0.00 | 87 | 1018.5 |
| 20260831154649 | 23 | 0 | 0.0 | 3.2 | 0.00 | 0.28 | 0.00 | 83 | 1018.4 |
| 20260831153049 | 24 | 246 | 1.6 | 8.0 | 0.00 | 0.28 | 0.00 | 80 | 1018.1 |
| 20260831151540 | 24 | 262 | 3.2 | 9.7 | 0.00 | 0.28 | 0.00 | 80 | 1018.0 |
| 20260831150042 | 23 | 308 | 1.6 | 9.7 | 0.00 | 0.28 | 0.00 | 82 | 1017.9 |
| 20260831144548 | 23 | 250 | 1.6 | 8.0 | 0.00 | 0.43 | 0.00 | 82 | 1017.8 |
| 20260831143105 | 24 | 258 | 3.2 | 12.9 | 0.00 | 0.43 | 0.00 | 82 | 1017.5 |
| 20260831141553 | 23 | 235 | 3.2 | 9.7 | 0.00 | 0.43 | 0.00 | 85 | 1017.4 |
| 20260831140052 | 23 | 280 | 1.6 | 8.0 | 0.00 | 0.43 | 0.00 | 85 | 1017.6 |
| 20260831134542 | 22 | 263 | 1.6 | 6.4 | 0.00 | 0.79 | 0.00 | 86 | 1017.5 |
| 20260831133047 | 22 | 268 | 3.2 | 8.0 | 0.00 | 0.79 | 0.00 | 85 | 1017.3 |
| 20260831131539 | 22 | 214 | 0.0 | 8.0 | 0.00 | 0.79 | 0.00 | 87 | 1017.1 |
| 20260831130043 | 22 | 180 | 0.0 | 6.4 | 0.00 | 0.79 | 0.00 | 88 | 1017.3 |
| 20260831124539 | 22 | 217 | 1.6 | 6.4 | 0.00 | 1.02 | 0.00 | 88 | 1017.0 |
| 20260831123041 | 21 | 0 | 1.6 | 4.8 | 0.00 | 1.02 | 0.00 | 90 | 1017.1 |
| 20260831121542 | 21 | 0 | 0.0 | 1.6 | 0.00 | 1.02 | 0.00 | 91 | 1017.1 |
| 20260831120044 | 20 | 0 | 0.0 | 0.0 | 0.00 | 1.02 | 0.00 | 92 | 1016.8 |
| 20260831114542 | 20 | 0 | 0.0 | 0.0 | 0.00 | 1.02 | 0.00 | 92 | 1016.9 |
| 20260831113048 | 20 | 0 | 0.0 | 1.6 | 0.00 | 1.02 | 0.00 | 92 | 1016.9 |
| 20260831111541 | 20 | 0 | 0.0 | 1.6 | 0.00 | 1.02 | 0.00 | 92 | 1016.8 |
| 20260831110042 | 20 | 0 | 0.0 | 0.0 | 0.00 | 1.02 | 0.00 | 91 | 1016.9 |
| 20260831104537 | 20 | 0 | 0.0 | 0.0 | 0.00 | 1.02 | 0.00 | 91 | 1017.0 |
| 20260831103048 | 20 | 0 | 0.0 | 1.6 | 0.00 | 1.02 | 0.00 | 91 | 1016.9 |
| 20260831101551 | 20 | 0 | 0.0 | 1.6 | 0.00 | 1.02 | 0.00 | 90 | 1016.8 |
| 20260831100056 | 20 | 0 | 0.0 | 3.2 | 0.00 | 1.02 | 0.00 | 90 | 1016.8 |
| 20260831094542 | 21 | 0 | 0.0 | 3.2 | 0.00 | 1.02 | 0.00 | 89 | 1016.7 |
| 20260831093049 | 21 | 165 | 0.0 | 1.6 | 0.00 | 1.02 | 0.00 | 89 | 1016.8 |
| 20260831091541 | 21 | 0 | 0.0 | 1.6 | 0.00 | 1.02 | 0.00 | 89 | 1016.5 |
| 20260831090101 | 21 | 0 | 0.0 | 4.8 | 0.00 | 1.02 | 0.00 | 88 | 1016.7 |
| 20260831084541 | 21 | 0 | 0.0 | 4.8 | 0.00 | 1.12 | 0.00 | 89 | 1016.5 |
| 20260831083041 | 21 | 0 | 0.0 | 8.0 | 0.00 | 1.12 | 0.00 | 89 | 1016.5 |
| 20260831081542 | 21 | 0 | 0.0 | 4.8 | 0.00 | 1.12 | 0.00 | 89 | 1016.4 |
| 20260831080044 | 20 | 250 | 0.0 | 6.4 | 0.00 | 1.12 | 0.00 | 89 | 1016.3 |
| 20260831074541 | 20 | 246 | 0.0 | 3.2 | 0.00 | 1.12 | 0.00 | 90 | 1016.4 |
| 20260831073042 | 20 | 246 | 1.6 | 8.0 | 0.00 | 1.12 | 0.00 | 91 | 1016.5 |
| 20260831071541 | 20 | 255 | 0.0 | 1.6 | 0.00 | 1.12 | 0.00 | 91 | 1016.9 |
| 20260831070042 | 20 | 259 | 0.0 | 1.6 | 0.00 | 1.12 | 0.00 | 91 | 1017.1 |
| 20260831064547 | 20 | 0 | 0.0 | 1.6 | 0.00 | 1.12 | 0.00 | 92 | 1017.3 |
| 20260831063040 | 20 | 0 | 0.0 | 3.2 | 0.00 | 1.12 | 0.00 | 92 | 1017.3 |
| 20260831061553 | 20 | 0 | 0.0 | 3.2 | 0.00 | 1.12 | 0.00 | 93 | 1017.4 |
| 20260831060042 | 20 | 0 | 0.0 | 0.0 | 0.00 | 1.12 | 0.00 | 93 | 1017.5 |
| 20260831054545 | 20 | 0 | 0.0 | 0.0 | 0.00 | 1.12 | 0.00 | 93 | 1017.4 |
| 20260831053042 | 20 | 0 | 0.0 | 0.0 | 0.00 | 1.12 | 0.00 | 92 | 1017.6 |
| 20260831051549 | 20 | 0 | 0.0 | 1.6 | 0.00 | 1.12 | 0.00 | 93 | 1017.5 |
| 20260831050044 | 20 | 0 | 0.0 | 3.2 | 0.00 | 1.12 | 0.00 | 93 | 1017.4 |
| 20260831044542 | 20 | 165 | 0.0 | 4.8 | 0.00 | 1.14 | 0.00 | 93 | 1017.6 |
| 20260831043041 | 20 | 136 | 0.0 | 1.6 | 0.00 | 1.14 | 0.00 | 92 | 1017.7 |
| 20260831041542 | 20 | 0 | 0.0 | 0.0 | 0.00 | 1.14 | 0.00 | 91 | 1017.8 |
| 20260831040041 | 20 | 160 | 0.0 | 3.2 | 0.00 | 1.14 | 0.00 | 91 | 1017.9 |
| 20260831034544 | 20 | 135 | 0.0 | 3.2 | 0.00 | 1.14 | 1.14 | 91 | 1017.9 |
| 20260831033042 | 20 | 212 | 0.0 | 4.8 | 0.00 | 1.14 | 1.14 | 91 | 1017.9 |
| 20260831031545 | 20 | 204 | 0.0 | 4.8 | 0.00 | 1.14 | 1.14 | 91 | 1018.0 |
| 20260831030047 | 20 | 0 | 0.0 | 1.6 | 0.00 | 1.14 | 1.14 | 91 | 1017.7 |
| 20260831024607 | 20 | 103 | 0.0 | 3.2 | 0.00 | 1.14 | 1.14 | 91 | 1017.6 |
| 20260831023045 | 20 | 114 | 0.0 | 3.2 | 0.00 | 1.14 | 1.14 | 90 | 1017.5 |
| 20260831021540 | 21 | 114 | 0.0 | 4.8 | 0.00 | 1.14 | 1.14 | 90 | 1017.5 |
| 20260831020041 | 21 | 162 | 0.0 | 9.7 | 0.00 | 1.14 | 1.14 | 89 | 1017.3 |
| 20260831014541 | 21 | 155 | 1.6 | 6.4 | 0.00 | 1.14 | 1.14 | 89 | 1017.2 |
| 20260831013054 | 21 | 82 | 1.6 | 6.4 | 0.00 | 1.14 | 1.14 | 89 | 1017.1 |
| 20260831011542 | 21 | 115 | 3.2 | 6.4 | 0.00 | 1.14 | 1.14 | 89 | 1017.1 |
| 20260831010049 | 21 | 158 | 1.6 | 6.4 | 0.00 | 1.14 | 1.14 | 88 | 1017.1 |
| 20260831004547 | 21 | 87 | 4.8 | 9.7 | 0.00 | 1.14 | 1.14 | 88 | 1016.5 |
| 20260831003044 | 21 | 117 | 1.6 | 12.9 | 0.00 | 1.14 | 1.14 | 88 | 1016.6 |
| 20260831001541 | 21 | 104 | 3.2 | 11.3 | 0.00 | 1.14 | 1.14 | 87 | 1016.3 |
| 20260831000048 | 21 | 106 | 4.8 | 14.5 | 0.00 | 1.14 | 1.14 | 87 | 1016.5 |
| 20260830234547 | 21 | 113 | 4.8 | 12.9 | 0.00 | 1.14 | 1.14 | 87 | 1016.6 |
| 20260830233051 | 21 | 75 | 3.2 | 9.7 | 0.00 | 1.14 | 1.14 | 87 | 1017.0 |
| 20260830231540 | 21 | 65 | 3.2 | 11.3 | 0.00 | 1.14 | 1.14 | 87 | 1016.8 |
| 20260830230049 | 21 | 115 | 3.2 | 8.0 | 0.00 | 1.14 | 1.14 | 87 | 1017.1 |
| 20260830224543 | 21 | 138 | 3.2 | 8.0 | 0.00 | 1.14 | 1.14 | 88 | 1017.1 |
| 20260830223040 | 21 | 97 | 1.6 | 6.4 | 0.10 | 1.14 | 1.14 | 89 | 1017.3 |
| 20260830221545 | 21 | 103 | 1.6 | 4.8 | 0.25 | 1.14 | 1.14 | 90 | 1017.3 |
| 20260830220048 | 21 | 143 | 0.0 | 3.2 | 0.25 | 1.14 | 1.14 | 90 | 1017.5 |
| 20260830214541 | 21 | 0 | 0.0 | 4.8 | 0.25 | 1.14 | 1.14 | 88 | 1017.7 |
| 20260830213043 | 22 | 224 | 0.0 | 4.8 | 0.15 | 1.04 | 1.04 | 85 | 1018.0 |
| 20260830211541 | 22 | 0 | 0.0 | 3.2 | 0.00 | 0.89 | 0.89 | 81 | 1017.8 |
| 20260830210052 | 22 | 198 | 1.6 | 9.7 | 0.00 | 0.89 | 0.89 | 80 | 1017.5 |
| 20260830204543 | 22 | 175 | 0.0 | 8.0 | 0.00 | 0.89 | 0.89 | 80 | 1017.4 |
| 20260830203057 | 22 | 162 | 4.8 | 14.5 | 0.00 | 0.89 | 0.89 | 80 | 1017.0 |
| 20260830201547 | 23 | 131 | 3.2 | 17.7 | 0.00 | 0.89 | 0.89 | 79 | 1017.0 |
| 20260830200041 | 23 | 191 | 3.2 | 12.9 | 0.00 | 0.89 | 0.89 | 79 | 1017.4 |
| 20260830194542 | 23 | 104 | 6.4 | 16.1 | 0.00 | 0.89 | 0.89 | 79 | 1017.2 |
| 20260830193042 | 22 | 229 | 4.8 | 11.3 | 0.00 | 0.89 | 0.89 | 81 | 1017.2 |
| 20260830191541 | 22 | 98 | 0.0 | 8.0 | 0.00 | 0.89 | 0.89 | 82 | 1017.2 |
| 20260830190043 | 22 | 127 | 6.4 | 17.7 | 0.00 | 0.89 | 0.89 | 82 | 1017.2 |
| 20260830184542 | 22 | 110 | 4.8 | 11.3 | 0.00 | 0.89 | 0.89 | 83 | 1017.3 |
| 20260830183041 | 22 | 109 | 1.6 | 9.7 | 0.00 | 0.89 | 0.89 | 83 | 1017.7 |
| 20260830181554 | 22 | 160 | 4.8 | 14.5 | 0.00 | 0.89 | 0.89 | 82 | 1017.6 |
| 20260830180049 | 22 | 195 | 4.8 | 14.5 | 0.00 | 0.89 | 0.89 | 82 | 1017.3 |
| 20260830174542 | 22 | 87 | 6.4 | 20.9 | 0.00 | 0.89 | 0.89 | 82 | 1017.6 |
| 20260830173104 | 22 | 129 | 6.4 | 17.7 | 0.00 | 0.89 | 0.89 | 84 | 1018.0 |
| 20260830171544 | 21 | 214 | 8.0 | 17.7 | 0.00 | 0.89 | 0.89 | 86 | 1018.5 |